Time;durP1;ratioP1;P1;durP2;ratioP2;P2;SDS_P1;SDS_P2;PMS_P1;PMS_P2;Temp;Humidity;BMP_temperature;BMP_pressure;BME280_temperature;BME280_humidity;BME280_pressure;Samples;Min_cycle;Max_cycle;Signal;HPM_P1;HPM_P2
2023/12/24 00:00:17;;;;;;;0.67;0.67;;;;;231.90;258443.00;;;;5074281;28;20543;-62
2023/12/24 00:02:45;;;;;;;0.60;0.60;;;;;231.90;258443.00;;;;5073500;28;20788;-63
2023/12/24 00:05:14;;;;;;;0.50;0.50;;;;;231.90;258443.00;;;;5073274;28;20191;-62
2023/12/24 00:07:41;;;;;;;0.60;0.60;;;;;231.90;258443.00;;;;5073724;28;20508;-62
2023/12/24 00:10:09;;;;;;;0.60;0.60;;;;;231.90;258443.00;;;;5073742;28;20194;-62
2023/12/24 00:12:37;;;;;;;0.60;0.60;;;;;231.90;258443.00;;;;5073387;28;20215;-62
2023/12/24 00:15:07;;;;;;;1.53;0.83;;;;;231.90;258443.00;;;;5073328;28;20607;-62
2023/12/24 00:17:35;;;;;;;0.60;0.60;;;;;231.90;258443.00;;;;5073340;28;20317;-62
2023/12/24 00:20:03;;;;;;;0.60;0.60;;;;;231.90;258443.00;;;;5073306;28;20658;-62
2023/12/24 00:22:33;;;;;;;0.60;0.60;;;;;231.90;258443.00;;;;5073307;28;20755;-62
2023/12/24 00:25:01;;;;;;;0.70;0.70;;;;;231.90;258443.00;;;;5072164;28;20290;-62
2023/12/24 00:27:30;;;;;;;0.60;0.60;;;;;231.90;258443.00;;;;5073634;28;20194;-62
2023/12/24 00:29:58;;;;;;;0.60;0.60;;;;;231.90;258443.00;;;;5073122;28;20199;-62
2023/12/24 00:32:25;;;;;;;0.60;0.60;;;;;231.90;258443.00;;;;5073361;28;20294;-62
2023/12/24 00:34:53;;;;;;;0.60;0.60;;;;;231.90;258443.00;;;;5073864;28;20697;-62
2023/12/24 00:37:20;;;;;;;0.60;0.60;;;;;231.90;258443.00;;;;5074197;28;20222;-62
2023/12/24 00:39:49;;;;;;;0.50;0.50;;;;;231.90;258443.00;;;;5073642;28;20188;-62
2023/12/24 00:42:16;;;;;;;0.70;0.70;;;;;231.90;258443.00;;;;5073256;28;20212;-62
2023/12/24 00:44:43;;;;;;;0.67;0.67;;;;;231.90;258443.00;;;;5073125;28;20195;-62
2023/12/24 00:47:11;;;;;;;1.17;0.80;;;;;231.90;258443.00;;;;5073817;28;20191;-62
2023/12/24 00:49:38;;;;;;;0.50;0.50;;;;;231.90;258443.00;;;;5073092;28;20203;-62
2023/12/24 00:52:06;;;;;;;0.60;0.60;;;;;231.90;258443.00;;;;5073014;28;20222;-62
2023/12/24 00:54:33;;;;;;;0.67;0.67;;;;;231.90;258443.00;;;;5073546;28;20521;-62
2023/12/24 00:57:02;;;;;;;0.50;0.50;;;;;231.90;258443.00;;;;5073045;28;20577;-62
2023/12/24 00:59:29;;;;;;;0.60;0.60;;;;;231.90;258443.00;;;;5073230;28;20546;-62
2023/12/24 01:01:57;;;;;;;0.57;0.57;;;;;231.90;258443.00;;;;5072983;28;20234;-62
2023/12/24 01:04:24;;;;;;;0.50;0.50;;;;;231.90;258443.00;;;;5072900;28;20218;-62
2023/12/24 01:06:52;;;;;;;0.60;0.60;;;;;231.90;258443.00;;;;5072956;28;20180;-62
2023/12/24 01:09:19;;;;;;;0.50;0.50;;;;;231.90;258443.00;;;;5073578;28;20203;-62
2023/12/24 01:11:47;;;;;;;0.50;0.50;;;;;231.90;258443.00;;;;5076935;28;20207;-62
2023/12/24 01:14:15;;;;;;;0.80;0.80;;;;;231.90;258443.00;;;;5071829;28;20610;-62
2023/12/24 01:16:43;;;;;;;0.80;0.80;;;;;231.90;258443.00;;;;5073001;28;20211;-62
2023/12/24 01:19:10;;;;;;;0.60;0.60;;;;;231.90;258443.00;;;;5076720;28;20695;-62
2023/12/24 01:21:38;;;;;;;0.50;0.50;;;;;231.90;258443.00;;;;5076427;28;20234;-62
2023/12/24 01:24:06;;;;;;;0.60;0.60;;;;;231.90;258443.00;;;;5076664;28;20194;-62
2023/12/24 01:26:35;;;;;;;0.57;0.57;;;;;231.90;258443.00;;;;5076527;28;20214;-61
2023/12/24 01:29:02;;;;;;;0.60;0.60;;;;;231.90;258443.00;;;;5076868;28;20196;-61
2023/12/24 01:31:31;;;;;;;0.70;0.70;;;;;231.90;258443.00;;;;5076365;28;20192;-62
2023/12/24 01:33:58;;;;;;;0.80;0.80;;;;;231.90;258443.00;;;;5076475;28;20218;-62
2023/12/24 01:36:26;;;;;;;0.60;0.60;;;;;231.90;258443.00;;;;5076272;28;20195;-62
2023/12/24 01:38:53;;;;;;;1.27;0.83;;;;;231.90;258443.00;;;;5076166;28;20557;-62
2023/12/24 01:41:20;;;;;;;0.60;0.60;;;;;231.90;258443.00;;;;5076207;28;20241;-62
2023/12/24 01:43:49;;;;;;;0.80;0.80;;;;;231.90;258443.00;;;;5076315;28;20195;-62
2023/12/24 01:46:21;;;;;;;0.70;0.70;;;;;231.90;258443.00;;;;5076392;28;20206;-62
2023/12/24 01:48:51;;;;;;;0.60;0.60;;;;;231.90;258443.00;;;;5076314;28;20183;-62
2023/12/24 01:51:20;;;;;;;0.73;0.73;;;;;231.90;258443.00;;;;5076397;28;20254;-62
2023/12/24 01:53:48;;;;;;;0.70;0.70;;;;;231.90;258443.00;;;;5076294;28;20195;-62
2023/12/24 01:56:16;;;;;;;0.60;0.60;;;;;231.90;258443.00;;;;5075936;28;20194;-63
2023/12/24 01:58:44;;;;;;;0.60;0.60;;;;;231.90;258443.00;;;;5076425;28;20570;-62
2023/12/24 02:01:12;;;;;;;1.47;1.37;;;;;231.90;258443.00;;;;5075896;28;20203;-62
2023/12/24 02:03:39;;;;;;;0.60;0.60;;;;;231.90;258443.00;;;;5075875;28;20226;-62
2023/12/24 02:06:09;;;;;;;0.60;0.60;;;;;231.90;258443.00;;;;5075939;28;20662;-62
2023/12/24 02:08:37;;;;;;;0.60;0.60;;;;;231.90;258443.00;;;;5075798;28;20662;-62
2023/12/24 02:11:04;;;;;;;2.27;0.90;;;;;231.90;258443.00;;;;5075645;28;20259;-62
2023/12/24 02:13:32;;;;;;;0.80;0.80;;;;;231.90;258443.00;;;;5075716;28;20227;-62
2023/12/24 02:16:03;;;;;;;0.63;0.63;;;;;231.90;258443.00;;;;5075845;28;20548;-62
2023/12/24 02:18:32;;;;;;;0.67;0.67;;;;;231.90;258443.00;;;;5075499;28;20223;-62
2023/12/24 02:21:03;;;;;;;0.70;0.70;;;;;231.90;258443.00;;;;5075950;28;20195;-62
2023/12/24 02:23:32;;;;;;;0.60;0.60;;;;;231.90;258443.00;;;;5075621;28;20427;-62
2023/12/24 02:26:04;;;;;;;0.60;0.60;;;;;231.90;258443.00;;;;5075857;28;20677;-62
2023/12/24 02:28:38;;;;;;;0.70;0.70;;;;;231.90;258443.00;;;;5074770;28;20187;-62
2023/12/24 02:31:09;;;;;;;4.23;1.10;;;;;231.90;258443.00;;;;5075626;28;20186;-62
2023/12/24 02:33:41;;;;;;;0.80;0.80;;;;;231.90;258443.00;;;;5075460;28;20215;-62
2023/12/24 02:36:12;;;;;;;0.70;0.70;;;;;231.90;258443.00;;;;5075790;28;20193;-62
2023/12/24 02:38:38;;;;;;;0.80;0.80;;;;;231.90;258443.00;;;;5075293;28;20207;-62
2023/12/24 02:41:06;;;;;;;0.60;0.60;;;;;231.90;258443.00;;;;5075650;28;20233;-62
2023/12/24 02:43:34;;;;;;;0.70;0.70;;;;;231.90;258443.00;;;;5073794;28;20225;-62
2023/12/24 02:46:02;;;;;;;0.70;0.70;;;;;231.90;258443.00;;;;5076467;28;20275;-62
2023/12/24 02:48:29;;;;;;;0.60;0.60;;;;;231.90;258443.00;;;;5076146;28;20202;-61
2023/12/24 02:50:57;;;;;;;0.70;0.70;;;;;231.90;258443.00;;;;5075300;28;20202;-61
2023/12/24 02:53:25;;;;;;;0.80;0.80;;;;;231.90;258443.00;;;;5074767;28;20674;-62
2023/12/24 02:55:53;;;;;;;0.70;0.70;;;;;231.90;258443.00;;;;5074907;28;20206;-62
2023/12/24 02:58:20;;;;;;;0.60;0.60;;;;;231.90;258443.00;;;;5075127;28;20215;-62
2023/12/24 03:00:48;;;;;;;0.60;0.60;;;;;231.90;258443.00;;;;5075064;28;20531;-62
2023/12/24 03:03:15;;;;;;;0.63;0.63;;;;;231.90;258443.00;;;;5075061;28;20226;-62
2023/12/24 03:05:43;;;;;;;0.60;0.60;;;;;231.90;258443.00;;;;5075245;28;20196;-62
2023/12/24 03:08:10;;;;;;;0.50;0.50;;;;;231.90;258443.00;;;;5074746;28;20556;-62
2023/12/24 03:10:39;;;;;;;0.60;0.60;;;;;231.90;258443.00;;;;5074561;28;20202;-62
2023/12/24 03:13:06;;;;;;;0.50;0.50;;;;;231.90;258443.00;;;;5074610;28;20223;-62
2023/12/24 03:15:33;;;;;;;0.70;0.70;;;;;231.90;258443.00;;;;5074671;28;20188;-62
2023/12/24 03:18:01;;;;;;;0.70;0.70;;;;;231.90;258443.00;;;;5074693;28;20321;-62
2023/12/24 03:20:28;;;;;;;0.60;0.60;;;;;231.90;258443.00;;;;5074741;28;20274;-62
2023/12/24 03:22:56;;;;;;;0.70;0.70;;;;;231.90;258443.00;;;;5074400;28;20214;-62
2023/12/24 03:25:23;;;;;;;0.73;0.73;;;;;231.90;258443.00;;;;5074343;28;20198;-62
2023/12/24 03:27:52;;;;;;;0.60;0.60;;;;;231.90;258443.00;;;;5074603;28;20715;-62
2023/12/24 03:30:19;;;;;;;0.63;0.63;;;;;231.90;258443.00;;;;5074237;28;20195;-62
2023/12/24 03:32:47;;;;;;;0.70;0.70;;;;;231.90;258443.00;;;;5074115;28;20710;-62
2023/12/24 03:35:14;;;;;;;0.67;0.67;;;;;231.90;258443.00;;;;5074132;28;20262;-62
2023/12/24 03:37:42;;;;;;;0.60;0.60;;;;;231.90;258443.00;;;;5074287;28;20223;-62
2023/12/24 03:40:10;;;;;;;0.70;0.70;;;;;231.90;258443.00;;;;5073858;28;20245;-62
2023/12/24 03:42:38;;;;;;;0.70;0.70;;;;;231.90;258443.00;;;;5073832;28;20222;-62
2023/12/24 03:45:07;;;;;;;0.70;0.70;;;;;231.90;258443.00;;;;5074053;28;20188;-62
2023/12/24 03:47:36;;;;;;;0.70;0.70;;;;;231.90;258443.00;;;;5074266;28;20538;-62
2023/12/24 03:50:03;;;;;;;1.60;1.00;;;;;231.90;258443.00;;;;5073779;28;20199;-62
2023/12/24 03:52:30;;;;;;;0.60;0.60;;;;;231.90;258443.00;;;;5073747;28;20208;-62
2023/12/24 03:54:58;;;;;;;0.70;0.70;;;;;231.90;258443.00;;;;5074293;28;20201;-62
2023/12/24 03:57:25;;;;;;;0.80;0.80;;;;;231.90;258443.00;;;;5073960;28;20298;-63
2023/12/24 03:59:53;;;;;;;0.63;0.63;;;;;231.90;258443.00;;;;5073905;28;20194;-62
2023/12/24 04:02:24;;;;;;;0.80;0.80;;;;;231.90;258443.00;;;;5074013;28;20286;-62
2023/12/24 04:04:51;;;;;;;0.70;0.70;;;;;231.90;258443.00;;;;5073874;28;20183;-62
2023/12/24 04:07:19;;;;;;;0.83;0.83;;;;;231.90;258443.00;;;;5073540;28;20195;-62
2023/12/24 04:09:46;;;;;;;0.70;0.70;;;;;231.90;258443.00;;;;5073571;28;20256;-62
2023/12/24 04:12:14;;;;;;;0.93;0.93;;;;;231.90;258443.00;;;;5073517;28;20207;-62
2023/12/24 04:14:41;;;;;;;0.70;0.70;;;;;231.90;258443.00;;;;5072099;28;20253;-62
2023/12/24 04:17:09;;;;;;;0.53;0.53;;;;;231.90;258443.00;;;;5073550;28;20194;-62
2023/12/24 04:19:37;;;;;;;0.73;0.73;;;;;231.90;258443.00;;;;5073464;28;20199;-62
2023/12/24 04:22:05;;;;;;;0.67;0.67;;;;;231.90;258443.00;;;;5073247;28;20693;-62
2023/12/24 04:24:33;;;;;;;0.60;0.60;;;;;231.90;258443.00;;;;5073742;28;20202;-61
2023/12/24 04:27:01;;;;;;;0.60;0.60;;;;;231.90;258443.00;;;;5073179;28;20193;-62
2023/12/24 04:29:29;;;;;;;0.90;0.90;;;;;231.90;258443.00;;;;5073515;28;20188;-61
2023/12/24 04:31:56;;;;;;;0.80;0.80;;;;;231.90;258443.00;;;;5073457;28;20217;-62
2023/12/24 04:34:23;;;;;;;0.70;0.70;;;;;231.90;258443.00;;;;5071890;28;20191;-62
2023/12/24 04:36:53;;;;;;;0.60;0.60;;;;;231.90;258443.00;;;;5073206;28;20202;-62
2023/12/24 04:39:21;;;;;;;0.60;0.60;;;;;231.90;258443.00;;;;5073504;28;20674;-62
2023/12/24 04:41:48;;;;;;;0.73;0.73;;;;;231.90;258443.00;;;;5073050;28;20210;-61
2023/12/24 04:44:16;;;;;;;0.70;0.70;;;;;231.90;258443.00;;;;5073046;28;20195;-62
2023/12/24 04:46:45;;;;;;;0.57;0.57;;;;;231.90;258443.00;;;;5073601;28;20670;-61
2023/12/24 04:49:12;;;;;;;0.57;0.57;;;;;231.90;258443.00;;;;5074096;28;20213;-61
2023/12/24 04:51:40;;;;;;;0.60;0.60;;;;;231.90;258443.00;;;;5073902;28;20222;-61
2023/12/24 04:54:09;;;;;;;0.70;0.70;;;;;231.90;258443.00;;;;5077210;28;20187;-62
2023/12/24 04:56:36;;;;;;;0.70;0.70;;;;;231.90;258443.00;;;;5077683;28;20244;-61
2023/12/24 04:59:04;;;;;;;0.60;0.60;;;;;231.90;258443.00;;;;5077171;28;20558;-61
2023/12/24 05:01:31;;;;;;;0.53;0.53;;;;;231.90;258443.00;;;;5077299;28;20190;-61
2023/12/24 05:03:59;;;;;;;0.70;0.70;;;;;231.90;258443.00;;;;5077200;28;20200;-62
2023/12/24 05:06:29;;;;;;;0.50;0.50;;;;;231.90;258443.00;;;;5077076;28;20193;-61
2023/12/24 05:08:56;;;;;;;0.50;0.50;;;;;231.90;258443.00;;;;5077066;28;20191;-62
2023/12/24 05:11:25;;;;;;;0.60;0.60;;;;;231.90;258443.00;;;;5076714;28;20188;-61
2023/12/24 05:13:53;;;;;;;0.90;0.90;;;;;231.90;258443.00;;;;5076634;28;20195;-61
2023/12/24 05:16:20;;;;;;;0.97;0.90;;;;;231.90;258443.00;;;;5076799;28;20199;-62
2023/12/24 05:18:49;;;;;;;0.60;0.60;;;;;231.90;258443.00;;;;5076564;28;20222;-61
2023/12/24 05:21:16;;;;;;;0.53;0.53;;;;;231.90;258443.00;;;;5076673;28;20201;-62
2023/12/24 05:23:43;;;;;;;0.60;0.60;;;;;231.90;258443.00;;;;5076827;28;20195;-61
2023/12/24 05:26:11;;;;;;;0.53;0.53;;;;;231.90;258443.00;;;;5076339;28;20191;-61
2023/12/24 05:28:40;;;;;;;0.50;0.50;;;;;231.90;258443.00;;;;5076359;28;20197;-61
2023/12/24 05:31:07;;;;;;;0.60;0.60;;;;;231.90;258443.00;;;;5076317;28;20199;-61
2023/12/24 05:33:34;;;;;;;0.60;0.60;;;;;231.90;258443.00;;;;5076166;28;20222;-61
2023/12/24 05:36:02;;;;;;;0.53;0.53;;;;;231.90;258443.00;;;;5076962;28;20199;-61
2023/12/24 05:38:30;;;;;;;0.60;0.60;;;;;231.90;258443.00;;;;5076498;28;20221;-61
2023/12/24 05:40:57;;;;;;;0.50;0.50;;;;;231.90;258443.00;;;;5076412;28;20199;-61
2023/12/24 05:43:24;;;;;;;0.73;0.73;;;;;231.90;258443.00;;;;5076088;28;20632;-61
2023/12/24 05:45:53;;;;;;;0.60;0.60;;;;;231.90;258443.00;;;;5076284;28;20206;-62
2023/12/24 05:48:20;;;;;;;0.70;0.70;;;;;231.90;258443.00;;;;5074868;28;20191;-61
2023/12/24 05:50:48;;;;;;;0.60;0.60;;;;;231.90;258443.00;;;;5074863;28;20275;-62
2023/12/24 05:53:15;;;;;;;0.60;0.60;;;;;231.90;258443.00;;;;5076223;28;20267;-62
2023/12/24 05:55:42;;;;;;;0.50;0.50;;;;;231.90;258443.00;;;;5075982;28;20192;-61
2023/12/24 05:58:10;;;;;;;0.50;0.50;;;;;231.90;258443.00;;;;5076500;28;20218;-61
2023/12/24 06:00:37;;;;;;;0.70;0.70;;;;;231.90;258443.00;;;;5076659;28;20198;-61
2023/12/24 06:03:06;;;;;;;0.70;0.70;;;;;231.90;258443.00;;;;5076524;28;20220;-61
2023/12/24 06:05:34;;;;;;;0.60;0.60;;;;;231.90;258443.00;;;;5075793;28;20203;-61
2023/12/24 06:08:01;;;;;;;0.60;0.60;;;;;231.90;258443.00;;;;5075919;28;20671;-62
2023/12/24 06:10:28;;;;;;;0.80;0.80;;;;;231.90;258443.00;;;;5076052;28;20202;-61
2023/12/24 06:12:56;;;;;;;0.80;0.80;;;;;231.90;258443.00;;;;5075642;28;20216;-61
2023/12/24 06:15:23;;;;;;;0.60;0.60;;;;;231.90;258443.00;;;;5076219;28;20199;-61
2023/12/24 06:17:50;;;;;;;0.60;0.60;;;;;231.90;258443.00;;;;5075714;28;20206;-61
2023/12/24 06:20:19;;;;;;;0.50;0.50;;;;;231.90;258443.00;;;;5076362;28;20714;-61
2023/12/24 06:22:46;;;;;;;0.50;0.50;;;;;231.90;258443.00;;;;5075594;28;20721;-61
2023/12/24 06:25:14;;;;;;;0.70;0.70;;;;;231.90;258443.00;;;;5074155;28;20681;-61
2023/12/24 06:27:41;;;;;;;0.60;0.60;;;;;231.90;258443.00;;;;5075479;28;20192;-61
2023/12/24 06:30:10;;;;;;;1.03;1.03;;;;;231.90;258443.00;;;;5075538;28;20190;-61
2023/12/24 06:32:37;;;;;;;0.60;0.60;;;;;231.90;258443.00;;;;5075811;28;20219;-61
2023/12/24 06:35:05;;;;;;;0.60;0.60;;;;;231.90;258443.00;;;;5075323;28;20194;-61
2023/12/24 06:37:34;;;;;;;0.60;0.60;;;;;231.90;258443.00;;;;5075368;28;20191;-61
2023/12/24 06:40:01;;;;;;;0.50;0.50;;;;;231.90;258443.00;;;;5075376;28;20238;-61
2023/12/24 06:42:28;;;;;;;0.70;0.70;;;;;231.90;258443.00;;;;5075160;28;20319;-61
2023/12/24 06:44:56;;;;;;;0.60;0.60;;;;;231.90;258443.00;;;;5076199;28;20249;-61
2023/12/24 06:47:23;;;;;;;0.70;0.70;;;;;231.90;258443.00;;;;5075692;28;20191;-62
2023/12/24 06:49:51;;;;;;;0.60;0.60;;;;;231.90;258443.00;;;;5074926;28;20200;-61
2023/12/24 06:52:19;;;;;;;0.57;0.57;;;;;231.90;258443.00;;;;5074801;28;20218;-62
2023/12/24 06:54:48;;;;;;;0.60;0.60;;;;;231.90;258443.00;;;;5074851;28;20233;-62
2023/12/24 06:57:15;;;;;;;0.50;0.50;;;;;231.90;258443.00;;;;5074751;28;20210;-61
2023/12/24 06:59:43;;;;;;;0.60;0.60;;;;;231.90;258443.00;;;;5074483;28;20214;-61
2023/12/24 07:02:10;;;;;;;0.87;0.87;;;;;231.90;258443.00;;;;5074732;28;20211;-61
2023/12/24 07:04:38;;;;;;;0.80;0.80;;;;;231.90;258443.00;;;;5074686;28;20635;-62
2023/12/24 07:07:05;;;;;;;0.60;0.60;;;;;231.90;258443.00;;;;5074443;28;20200;-61
2023/12/24 07:09:32;;;;;;;0.50;0.50;;;;;231.90;258443.00;;;;5074493;28;20194;-62
2023/12/24 07:12:01;;;;;;;0.60;0.60;;;;;231.90;258443.00;;;;5074403;28;20222;-61
2023/12/24 07:14:29;;;;;;;0.50;0.50;;;;;231.90;258443.00;;;;5072554;28;20663;-61
2023/12/24 07:16:56;;;;;;;0.50;0.50;;;;;231.90;258443.00;;;;5074580;28;20204;-61
2023/12/24 07:19:23;;;;;;;1.63;1.10;;;;;231.90;258443.00;;;;5074498;28;20222;-62
2023/12/24 07:21:51;;;;;;;1.50;0.97;;;;;231.90;258443.00;;;;5074549;28;20218;-62
2023/12/24 07:24:18;;;;;;;0.60;0.60;;;;;231.90;258443.00;;;;5074407;28;20580;-62
2023/12/24 07:26:45;;;;;;;0.73;0.73;;;;;231.90;258443.00;;;;5074360;28;20195;-61
2023/12/24 07:29:14;;;;;;;0.60;0.60;;;;;231.90;258443.00;;;;5074791;28;20266;-61
2023/12/24 07:31:42;;;;;;;0.60;0.60;;;;;231.90;258443.00;;;;5073202;28;20237;-61
2023/12/24 07:34:09;;;;;;;0.53;0.53;;;;;231.90;258443.00;;;;5074550;28;20202;-61
2023/12/24 07:36:36;;;;;;;1.00;0.90;;;;;231.90;258443.00;;;;5073893;28;20199;-61
2023/12/24 07:39:04;;;;;;;0.60;0.60;;;;;231.90;258443.00;;;;5073956;28;20222;-61
2023/12/24 07:41:31;;;;;;;0.60;0.60;;;;;231.90;258443.00;;;;5074090;28;20618;-61
2023/12/24 07:43:59;;;;;;;0.90;0.90;;;;;231.90;258443.00;;;;5074116;28;20198;-61
2023/12/24 07:46:27;;;;;;;0.60;0.60;;;;;231.90;258443.00;;;;5074226;28;20189;-60
2023/12/24 07:48:55;;;;;;;1.30;0.70;;;;;231.90;258443.00;;;;5074096;28;20206;-61
2023/12/24 07:51:22;;;;;;;0.70;0.70;;;;;231.90;258443.00;;;;5074421;28;20190;-61
2023/12/24 07:53:50;;;;;;;0.60;0.60;;;;;231.90;258443.00;;;;5073902;28;20195;-61
2023/12/24 07:56:17;;;;;;;0.60;0.60;;;;;231.90;258443.00;;;;5074000;28;20198;-61
2023/12/24 07:58:44;;;;;;;0.60;0.60;;;;;231.90;258443.00;;;;5074740;28;20219;-61
2023/12/24 08:01:12;;;;;;;0.60;0.60;;;;;231.90;258443.00;;;;5073591;28;20203;-62
2023/12/24 08:03:40;;;;;;;0.60;0.60;;;;;231.90;258443.00;;;;5073793;28;20214;-61
2023/12/24 08:06:08;;;;;;;0.70;0.70;;;;;231.90;258443.00;;;;5073615;28;20556;-61
2023/12/24 08:08:35;;;;;;;0.50;0.50;;;;;231.90;258443.00;;;;5073638;28;20202;-61
2023/12/24 08:11:04;;;;;;;0.50;0.50;;;;;231.90;258443.00;;;;5074063;28;20195;-61
2023/12/24 08:13:32;;;;;;;0.80;0.80;;;;;231.90;258443.00;;;;5073406;28;20268;-61
2023/12/24 08:15:59;;;;;;;0.70;0.70;;;;;231.90;258443.00;;;;5073954;28;20635;-61
2023/12/24 08:18:27;;;;;;;0.70;0.70;;;;;231.90;258443.00;;;;5073383;28;20207;-61
2023/12/24 08:20:55;;;;;;;0.80;0.80;;;;;231.90;258443.00;;;;5073367;28;20365;-62
2023/12/24 08:23:23;;;;;;;0.70;0.70;;;;;231.90;258443.00;;;;5073853;28;20219;-61
2023/12/24 08:25:50;;;;;;;0.60;0.60;;;;;231.90;258443.00;;;;5073613;28;20197;-61
2023/12/24 08:28:17;;;;;;;0.60;0.60;;;;;231.90;258443.00;;;;5072732;28;20708;-61
2023/12/24 08:30:45;;;;;;;0.60;0.60;;;;;231.90;258443.00;;;;5073321;28;20198;-61
2023/12/24 08:33:12;;;;;;;0.60;0.60;;;;;231.90;258443.00;;;;5073542;28;20776;-62
2023/12/24 08:35:40;;;;;;;0.50;0.50;;;;;231.90;258443.00;;;;5073391;28;20202;-62
2023/12/24 08:38:08;;;;;;;0.67;0.67;;;;;231.90;258443.00;;;;5072066;28;20681;-62
2023/12/24 08:40:35;;;;;;;0.60;0.60;;;;;231.90;258443.00;;;;5073013;28;20276;-62
2023/12/24 08:43:03;;;;;;;0.57;0.57;;;;;231.90;258443.00;;;;5073001;28;20551;-62
2023/12/24 08:45:31;;;;;;;0.60;0.60;;;;;231.90;258443.00;;;;5073223;28;20191;-61
2023/12/24 08:47:58;;;;;;;0.70;0.70;;;;;231.90;258443.00;;;;5073373;28;20655;-62
2023/12/24 08:50:25;;;;;;;0.50;0.50;;;;;231.90;258443.00;;;;5073057;28;20191;-62
2023/12/24 08:52:53;;;;;;;0.60;0.60;;;;;231.90;258443.00;;;;5072951;28;20687;-61
2023/12/24 08:55:22;;;;;;;1.70;1.40;;;;;231.90;258443.00;;;;5073419;28;20550;-61
2023/12/24 08:57:50;;;;;;;0.50;0.50;;;;;231.90;258443.00;;;;5073090;28;20542;-61
2023/12/24 09:00:18;;;;;;;0.70;0.70;;;;;231.90;258443.00;;;;5072658;28;20289;-62
2023/12/24 09:02:45;;;;;;;0.60;0.60;;;;;231.90;258443.00;;;;5072851;28;20215;-61
2023/12/24 09:05:13;;;;;;;0.50;0.50;;;;;231.90;258443.00;;;;5073772;28;20522;-61
2023/12/24 09:07:40;;;;;;;0.60;0.60;;;;;231.90;258443.00;;;;5073602;28;20570;-62
2023/12/24 09:10:08;;;;;;;0.53;0.53;;;;;231.90;258443.00;;;;5072930;28;20198;-60
2023/12/24 09:12:37;;;;;;;0.60;0.60;;;;;231.90;258443.00;;;;5072682;28;20215;-60
2023/12/24 09:15:05;;;;;;;0.50;0.50;;;;;231.90;258443.00;;;;5072707;28;20194;-60
2023/12/24 09:17:32;;;;;;;0.80;0.80;;;;;231.90;258443.00;;;;5072746;28;20235;-60
2023/12/24 09:19:59;;;;;;;0.60;0.60;;;;;231.90;258443.00;;;;5073284;28;20268;-60
2023/12/24 09:22:27;;;;;;;0.60;0.60;;;;;231.90;258443.00;;;;5072696;28;20579;-61
2023/12/24 09:24:54;;;;;;;0.70;0.70;;;;;231.90;258443.00;;;;5073177;28;20184;-61
2023/12/24 09:27:22;;;;;;;0.70;0.70;;;;;231.90;258443.00;;;;5073546;28;20203;-61
2023/12/24 09:29:50;;;;;;;0.80;0.80;;;;;231.90;258443.00;;;;5072687;28;20192;-62
2023/12/24 09:32:18;;;;;;;0.60;0.60;;;;;231.90;258443.00;;;;5072727;28;20219;-62
2023/12/24 09:34:45;;;;;;;0.60;0.60;;;;;231.90;258443.00;;;;5072564;28;20726;-61
2023/12/24 09:37:13;;;;;;;0.60;0.60;;;;;231.90;258443.00;;;;5072614;28;20195;-62
2023/12/24 09:39:40;;;;;;;0.60;0.60;;;;;231.90;258443.00;;;;5076457;28;20219;-61
2023/12/24 09:42:08;;;;;;;0.50;0.50;;;;;231.90;258443.00;;;;5076688;28;20222;-60
2023/12/24 09:44:36;;;;;;;0.90;0.90;;;;;231.90;258443.00;;;;5076424;28;20195;-61
2023/12/24 09:47:05;;;;;;;0.83;0.83;;;;;231.90;258443.00;;;;5076797;28;20199;-61
2023/12/24 09:49:33;;;;;;;0.70;0.70;;;;;231.90;258443.00;;;;5076489;28;20188;-60
2023/12/24 09:52:01;;;;;;;0.50;0.50;;;;;231.90;258443.00;;;;5076460;28;20215;-61
2023/12/24 09:54:28;;;;;;;0.60;0.60;;;;;231.90;258443.00;;;;5076225;28;20241;-61
2023/12/24 09:56:56;;;;;;;0.70;0.70;;;;;231.90;258443.00;;;;5074809;28;20693;-61
2023/12/24 09:59:24;;;;;;;0.90;0.90;;;;;231.90;258443.00;;;;5076195;28;20546;-61
2023/12/24 10:01:51;;;;;;;0.50;0.50;;;;;231.90;258443.00;;;;5075917;28;20219;-62
2023/12/24 10:04:20;;;;;;;0.60;0.60;;;;;231.90;258443.00;;;;5075960;28;20202;-61
2023/12/24 10:06:54;;;;;;;0.60;0.60;;;;;231.90;258443.00;;;;5076011;28;20682;-61
2023/12/24 10:09:23;;;;;;;0.60;0.60;;;;;231.90;258443.00;;;;5075679;28;20663;-61
2023/12/24 10:12:08;;;;;;;0.70;0.70;;;;;231.90;258443.00;;;;5075773;28;20222;-61
2023/12/24 10:14:37;;;;;;;0.50;0.50;;;;;231.90;258443.00;;;;5075798;28;20250;-61
2023/12/24 10:17:05;;;;;;;1.03;0.83;;;;;231.90;258443.00;;;;5074402;28;20203;-61
2023/12/24 10:19:34;;;;;;;0.50;0.50;;;;;231.90;258443.00;;;;5075357;28;20284;-61
2023/12/24 10:22:02;;;;;;;0.57;0.57;;;;;231.90;258443.00;;;;5075321;28;20297;-61
2023/12/24 10:24:30;;;;;;;0.57;0.57;;;;;231.90;258443.00;;;;5075537;28;20205;-61
2023/12/24 10:27:05;;;;;;;0.53;0.53;;;;;231.90;258443.00;;;;5075400;28;20206;-62
2023/12/24 10:29:33;;;;;;;0.60;0.60;;;;;231.90;258443.00;;;;5075428;28;20590;-62
2023/12/24 10:32:00;;;;;;;0.60;0.60;;;;;231.90;258443.00;;;;5074154;28;20301;-61
2023/12/24 10:34:29;;;;;;;0.50;0.50;;;;;231.90;258443.00;;;;5075244;28;20249;-61
2023/12/24 10:37:00;;;;;;;0.50;0.50;;;;;231.90;258443.00;;;;5075241;28;20202;-62
2023/12/24 10:39:27;;;;;;;0.80;0.80;;;;;231.90;258443.00;;;;5075029;28;20512;-62
2023/12/24 10:41:56;;;;;;;0.60;0.60;;;;;231.90;258443.00;;;;5075079;28;20210;-61
2023/12/24 10:44:24;;;;;;;0.50;0.50;;;;;231.90;258443.00;;;;5075206;28;20214;-62
2023/12/24 10:46:51;;;;;;;0.67;0.67;;;;;231.90;258443.00;;;;5075186;28;20195;-62
2023/12/24 10:49:19;;;;;;;0.60;0.60;;;;;231.90;258443.00;;;;5074391;28;20674;-62
2023/12/24 10:51:46;;;;;;;0.60;0.60;;;;;231.90;258443.00;;;;5074494;28;20207;-62
2023/12/24 10:54:15;;;;;;;0.60;0.60;;;;;231.90;258443.00;;;;5074714;28;20191;-62
2023/12/24 10:56:57;;;;;;;0.60;0.60;;;;;231.90;258443.00;;;;5074747;28;20248;-62
2023/12/24 11:00:02;;;;;;;1.50;1.00;;;;;231.90;258443.00;;;;5073636;28;20283;-62
2023/12/24 11:02:31;;;;;;;0.60;0.60;;;;;231.90;258443.00;;;;5074481;28;20627;-62
2023/12/24 11:04:59;;;;;;;0.60;0.60;;;;;231.90;258443.00;;;;5074779;28;20199;-62
2023/12/24 11:07:50;;;;;;;0.50;0.50;;;;;231.90;258443.00;;;;5075008;28;20547;-62
2023/12/24 11:10:42;;;;;;;0.60;0.60;;;;;231.90;258443.00;;;;5062843;28;20210;-62
2023/12/24 11:13:28;;;;;;;0.73;0.73;;;;;231.90;258443.00;;;;5074725;28;20218;-62
2023/12/24 11:15:55;;;;;;;0.60;0.60;;;;;231.90;258443.00;;;;5074334;28;20203;-62
2023/12/24 11:18:42;;;;;;;1.23;1.13;;;;;231.90;258443.00;;;;5072969;28;20654;-62
2023/12/24 11:21:10;;;;;;;0.57;0.57;;;;;231.90;258443.00;;;;5074565;28;20206;-62
2023/12/24 11:23:40;;;;;;;0.70;0.70;;;;;231.90;258443.00;;;;5074307;28;20721;-62
2023/12/24 11:26:32;;;;;;;0.50;0.50;;;;;231.90;258443.00;;;;5074175;28;20192;-62
2023/12/24 11:29:00;;;;;;;0.50;0.50;;;;;231.90;258443.00;;;;5074431;28;20192;-63
2023/12/24 11:31:28;;;;;;;1.57;1.47;;;;;231.90;258443.00;;;;5074256;28;20200;-62
2023/12/24 11:33:56;;;;;;;0.60;0.60;;;;;231.90;258443.00;;;;5074444;28;20190;-62
2023/12/24 11:36:26;;;;;;;0.80;0.80;;;;;231.90;258443.00;;;;5074114;28;20274;-62
2023/12/24 11:38:58;;;;;;;0.70;0.70;;;;;231.90;258443.00;;;;5074086;28;20203;-62
2023/12/24 11:41:28;;;;;;;0.60;0.60;;;;;231.90;258443.00;;;;5072379;28;20306;-62
2023/12/24 11:43:58;;;;;;;0.60;0.60;;;;;231.90;258443.00;;;;5072607;28;20192;-62
2023/12/24 11:46:27;;;;;;;0.70;0.70;;;;;231.90;258443.00;;;;5074095;28;20195;-62
2023/12/24 11:48:55;;;;;;;0.60;0.60;;;;;231.90;258443.00;;;;5074122;28;20188;-62
2023/12/24 11:51:24;;;;;;;0.60;0.60;;;;;231.90;258443.00;;;;5073618;28;20240;-62
2023/12/24 11:54:00;;;;;;;0.60;0.60;;;;;231.90;258443.00;;;;5074110;28;20639;-61
2023/12/24 11:56:30;;;;;;;0.67;0.67;;;;;231.90;258443.00;;;;5074086;28;20184;-61
2023/12/24 11:59:00;;;;;;;0.60;0.60;;;;;231.90;258443.00;;;;5073866;28;20202;-62
2023/12/24 12:01:29;;;;;;;0.60;0.60;;;;;231.90;258443.00;;;;5073884;28;20581;-62
2023/12/24 12:03:58;;;;;;;0.60;0.60;;;;;231.90;258443.00;;;;5073767;28;20200;-62